createdAt,value
2017-05-15T00:01:36.228Z,13.10
2017-05-15T00:04:04.542Z,13.10
2017-05-15T00:06:33.635Z,13.10
2017-05-15T00:09:02.699Z,13.20
2017-05-15T00:11:31.174Z,13.20
2017-05-15T00:13:59.485Z,13.20
2017-05-15T00:16:28.543Z,13.00
2017-05-15T00:18:56.851Z,13.00
2017-05-15T00:21:25.162Z,13.00
2017-05-15T00:23:53.473Z,13.00
2017-05-15T00:26:21.790Z,13.00
2017-05-15T00:28:50.613Z,13.00
2017-05-15T00:31:18.917Z,13.00
2017-05-15T00:33:47.230Z,12.90
2017-05-15T00:36:15.540Z,12.90
2017-05-15T00:38:43.854Z,12.90
2017-05-15T00:41:12.206Z,12.80
2017-05-15T00:43:40.511Z,12.80
2017-05-15T00:46:09.225Z,12.70
2017-05-15T00:48:37.543Z,12.70
2017-05-15T00:51:06.137Z,12.70
2017-05-15T00:53:34.462Z,12.70
2017-05-15T00:56:02.778Z,12.70
2017-05-15T00:58:31.089Z,12.70
2017-05-15T01:00:59.401Z,12.70
2017-05-15T01:03:27.729Z,12.60
2017-05-15T01:05:56.037Z,12.60
2017-05-15T01:08:24.845Z,12.60
2017-05-15T01:10:53.162Z,12.50
2017-05-15T01:13:21.473Z,12.50
2017-05-15T01:15:49.988Z,12.40
2017-05-15T01:18:18.301Z,12.30
2017-05-15T01:20:46.615Z,12.30
2017-05-15T01:23:14.925Z,12.30
2017-05-15T01:25:43.233Z,12.30
2017-05-15T01:28:11.546Z,12.20
2017-05-15T01:30:39.855Z,12.10
2017-05-15T01:33:08.168Z,12.10
2017-05-15T01:35:36.478Z,12.10
2017-05-15T01:38:04.789Z,12.10
2017-05-15T01:40:33.102Z,12.20
2017-05-15T01:43:01.409Z,12.20
2017-05-15T01:45:29.761Z,12.20
2017-05-15T01:47:58.092Z,12.20
2017-05-15T01:50:26.450Z,12.20
2017-05-15T01:52:55.774Z,12.20
2017-05-15T01:55:24.309Z,12.20
2017-05-15T01:57:52.617Z,12.20
2017-05-15T02:00:20.926Z,12.10
2017-05-15T02:02:49.981Z,12.10
2017-05-15T02:05:18.294Z,12.10
2017-05-15T02:07:46.978Z,12.10
2017-05-15T02:10:15.293Z,12.00
2017-05-15T02:12:43.602Z,12.00
2017-05-15T02:15:11.914Z,12.00
2017-05-15T02:17:40.226Z,12.00
2017-05-15T02:20:09.284Z,12.00
2017-05-15T02:22:37.598Z,12.00
2017-05-15T02:25:05.916Z,12.00
2017-05-15T02:27:34.226Z,12.00
2017-05-15T02:30:03.282Z,12.00
2017-05-15T02:32:31.600Z,12.00
2017-05-15T02:35:00.653Z,12.00
2017-05-15T02:37:28.971Z,12.00
2017-05-15T02:39:58.028Z,12.00
2017-05-15T02:42:26.341Z,11.90
2017-05-15T02:44:54.657Z,11.90
2017-05-15T02:47:22.967Z,11.90
2017-05-15T02:49:51.277Z,11.90
2017-05-15T02:52:20.333Z,11.90
2017-05-15T02:54:49.006Z,11.90
2017-05-15T02:57:17.322Z,11.90
2017-05-15T02:59:45.654Z,11.90
2017-05-15T03:02:13.974Z,11.90
2017-05-15T03:04:42.290Z,11.80
2017-05-15T03:07:10.753Z,11.90
2017-05-15T03:09:39.810Z,11.80
2017-05-15T03:12:08.127Z,11.90
2017-05-15T03:14:36.436Z,11.90
2017-05-15T03:17:04.752Z,11.90
2017-05-15T03:19:33.067Z,11.90
2017-05-15T03:22:02.127Z,11.90
2017-05-15T03:24:30.849Z,11.90
2017-05-15T03:26:59.903Z,11.90
2017-05-15T03:29:28.260Z,12.00
2017-05-15T03:31:56.577Z,12.00
2017-05-15T03:34:24.898Z,12.00
2017-05-15T03:36:53.215Z,11.90
2017-05-15T03:39:24.086Z,11.90
2017-05-15T03:41:52.874Z,11.90
2017-05-15T03:44:21.193Z,11.90
2017-05-15T03:46:49.511Z,11.90
2017-05-15T03:49:17.817Z,11.90
2017-05-15T03:51:46.946Z,11.90
2017-05-15T03:54:15.349Z,11.90
2017-05-15T03:56:43.668Z,11.90
2017-05-15T03:59:11.988Z,11.90
2017-05-15T04:01:40.305Z,11.90
2017-05-15T04:04:08.622Z,11.80
2017-05-15T04:06:36.998Z,11.80
2017-05-15T04:09:06.070Z,11.80
2017-05-15T04:11:34.437Z,11.80
2017-05-15T04:14:02.753Z,11.90
2017-05-15T04:16:31.823Z,11.80
2017-05-15T04:19:00.142Z,11.80
2017-05-15T04:21:29.050Z,11.90
2017-05-15T04:23:57.409Z,11.90
2017-05-15T04:26:25.732Z,11.90
2017-05-15T04:28:54.047Z,11.90
2017-05-15T04:31:23.107Z,11.90
2017-05-15T04:33:51.486Z,11.90
2017-05-15T04:36:19.814Z,11.90
2017-05-15T04:38:48.139Z,11.90
2017-05-15T04:41:16.453Z,11.90
2017-05-15T04:43:45.515Z,11.90
2017-05-15T04:46:13.838Z,11.90
2017-05-15T04:48:42.888Z,11.90
2017-05-15T04:51:11.202Z,11.90
2017-05-15T04:53:40.702Z,11.90
2017-05-15T04:56:09.993Z,12.00
2017-05-15T04:58:38.316Z,12.00
2017-05-15T05:01:06.627Z,12.10
2017-05-15T05:03:34.941Z,12.10
2017-05-15T05:06:04.005Z,12.00
2017-05-15T05:08:32.478Z,12.00
2017-05-15T05:11:04.330Z,12.00
2017-05-15T05:13:32.887Z,12.00
2017-05-15T05:16:04.751Z,12.10
2017-05-15T05:18:33.214Z,12.10
2017-05-15T05:21:21.282Z,12.20
2017-05-15T05:24:01.530Z,12.20
2017-05-15T05:26:52.415Z,12.20
2017-05-15T05:29:43.182Z,12.30
2017-05-15T05:32:23.376Z,12.30
2017-05-15T05:34:58.315Z,12.40
2017-05-15T05:37:38.531Z,12.40
2017-05-15T05:40:23.318Z,12.50
2017-05-15T05:43:04.334Z,12.50
2017-05-15T05:45:32.654Z,12.50
2017-05-15T05:48:01.022Z,12.60
2017-05-15T05:50:29.358Z,12.60
2017-05-15T05:52:59.150Z,12.70
2017-05-15T05:55:54.279Z,12.70
2017-05-15T05:58:23.440Z,12.70
2017-05-15T06:01:13.196Z,12.70
2017-05-15T06:03:53.800Z,12.80
2017-05-15T06:06:34.691Z,12.80
2017-05-15T06:09:15.021Z,12.90
2017-05-15T06:11:55.046Z,12.90
2017-05-15T06:14:35.429Z,12.90
2017-05-15T06:17:18.594Z,12.90
2017-05-15T06:19:46.646Z,12.90
2017-05-15T06:22:26.834Z,12.80
2017-05-15T06:28:03.245Z,12.90
2017-05-15T06:30:32.237Z,13.00
2017-05-15T06:33:00.561Z,13.00
2017-05-15T06:35:29.616Z,13.00
2017-05-15T06:38:09.924Z,13.20
2017-05-15T06:41:04.946Z,13.20
2017-05-15T06:43:33.264Z,13.30
2017-05-15T06:46:01.585Z,13.40
2017-05-15T06:48:29.906Z,13.50
2017-05-15T06:50:58.226Z,13.70
2017-05-15T06:53:29.421Z,13.70
2017-05-15T06:55:57.997Z,13.80
2017-05-15T06:58:26.474Z,13.90
2017-05-15T07:00:54.853Z,14.00
2017-05-15T07:03:23.174Z,14.10
2017-05-15T07:05:51.522Z,14.10
2017-05-15T07:08:19.737Z,14.20
2017-05-15T07:10:48.058Z,14.20
2017-05-15T07:13:16.373Z,14.30
2017-05-15T07:15:44.874Z,14.40
2017-05-15T07:18:13.779Z,14.40
2017-05-15T07:20:42.838Z,14.50
2017-05-15T07:23:11.205Z,14.50
2017-05-15T07:25:39.905Z,14.60
2017-05-15T07:28:08.228Z,14.60
2017-05-15T07:30:37.295Z,14.70
2017-05-15T07:33:05.610Z,14.80
2017-05-15T07:35:33.931Z,14.90
2017-05-15T07:38:02.281Z,15.00
2017-05-15T07:40:30.587Z,15.10
2017-05-15T07:42:58.902Z,15.20
2017-05-15T07:45:27.950Z,15.20
2017-05-15T07:47:56.301Z,15.30
2017-05-15T07:50:24.622Z,15.40
2017-05-15T07:52:52.936Z,15.50
2017-05-15T07:55:22.379Z,15.60
2017-05-15T07:57:50.903Z,15.70
2017-05-15T08:00:19.990Z,15.70
2017-05-15T08:02:48.516Z,15.80
2017-05-15T08:05:16.859Z,15.90
2017-05-15T08:07:45.191Z,16.00
2017-05-15T08:10:13.501Z,16.20
2017-05-15T08:12:41.853Z,16.30
2017-05-15T08:15:10.926Z,16.40
2017-05-15T08:17:39.243Z,16.50
2017-05-15T08:20:07.557Z,16.60
2017-05-15T08:22:35.866Z,16.60
2017-05-15T08:25:04.181Z,16.80
2017-05-15T08:27:32.533Z,16.90
2017-05-15T08:30:01.598Z,17.00
2017-05-15T08:32:29.985Z,17.10
2017-05-15T08:34:58.300Z,17.20
2017-05-15T08:37:27.546Z,17.30
2017-05-15T08:39:55.858Z,17.40
2017-05-15T08:42:24.200Z,17.40
2017-05-15T08:44:52.534Z,17.50
2017-05-15T08:47:23.106Z,17.60
2017-05-15T08:49:51.421Z,17.60
2017-05-15T08:52:19.738Z,17.60
2017-05-15T08:54:48.204Z,17.70
2017-05-15T08:57:17.258Z,17.80
2017-05-15T08:59:45.586Z,17.90
2017-05-15T09:02:13.899Z,18.00
2017-05-15T09:04:42.254Z,18.10
2017-05-15T09:07:10.583Z,18.20
2017-05-15T09:09:39.589Z,18.40
2017-05-15T09:12:07.898Z,18.60
2017-05-15T09:14:36.205Z,18.70
2017-05-15T09:17:04.518Z,18.70
2017-05-15T09:19:32.837Z,18.60
2017-05-15T09:22:01.274Z,18.40
2017-05-15T09:24:29.590Z,18.30
2017-05-15T09:26:57.914Z,18.20
2017-05-15T09:29:26.228Z,18.10
2017-05-15T09:31:55.613Z,17.80
2017-05-15T09:34:23.937Z,17.70
2017-05-15T09:36:52.270Z,17.50
2017-05-15T09:39:20.591Z,17.40
2017-05-15T09:41:48.909Z,17.40
2017-05-15T09:44:17.218Z,17.30
2017-05-15T09:46:46.284Z,17.30
2017-05-15T09:49:14.607Z,17.30
2017-05-15T09:51:43.011Z,17.40
2017-05-15T09:54:12.527Z,17.30
2017-05-15T09:56:40.837Z,17.40
2017-05-15T09:59:09.157Z,17.60
2017-05-15T10:01:37.472Z,17.80
2017-05-15T10:04:05.785Z,17.90
2017-05-15T10:06:34.837Z,18.00
2017-05-15T10:09:03.182Z,18.00
2017-05-15T10:11:31.982Z,17.90
2017-05-15T10:14:00.289Z,17.90
2017-05-15T10:16:28.597Z,17.80
2017-05-15T10:18:57.650Z,17.90
2017-05-15T10:21:25.991Z,18.10
2017-05-15T10:23:55.047Z,18.50
2017-05-15T10:26:23.357Z,18.80
2017-05-15T10:28:52.758Z,19.10
2017-05-15T10:31:33.593Z,19.40
2017-05-15T10:34:02.630Z,19.60
2017-05-15T10:36:31.680Z,19.80
2017-05-15T10:38:59.990Z,20.00
2017-05-15T10:41:29.055Z,20.10
2017-05-15T10:43:57.361Z,20.20
2017-05-15T10:46:25.685Z,20.30
2017-05-15T10:48:54.742Z,20.40
2017-05-15T10:51:23.666Z,20.60
2017-05-15T10:53:52.722Z,20.80
2017-05-15T10:56:21.905Z,20.90
2017-05-15T10:58:50.214Z,21.00
2017-05-15T11:01:18.581Z,21.20
2017-05-15T11:03:46.899Z,21.40
2017-05-15T11:06:15.957Z,21.40
2017-05-15T11:08:44.473Z,21.50
2017-05-15T11:11:15.870Z,21.70
2017-05-15T11:13:44.258Z,21.80
2017-05-15T11:16:12.574Z,21.90
2017-05-15T11:18:40.895Z,22.00
2017-05-15T11:21:09.199Z,22.10
2017-05-15T11:23:37.533Z,22.10
2017-05-15T11:26:06.573Z,22.10
2017-05-15T11:28:35.026Z,22.30
2017-05-15T11:31:03.344Z,22.30
2017-05-15T11:33:31.674Z,22.40
2017-05-15T11:35:59.990Z,22.30
2017-05-15T11:38:28.522Z,22.20
2017-05-15T11:40:57.591Z,22.10
2017-05-15T11:43:25.963Z,22.10
2017-05-15T11:45:54.265Z,22.00
2017-05-15T11:48:23.314Z,22.00
2017-05-15T11:50:51.621Z,22.10
2017-05-15T11:53:19.935Z,22.20
2017-05-15T11:55:48.254Z,22.30
2017-05-15T11:58:16.928Z,22.30
2017-05-15T12:00:45.977Z,22.30
2017-05-15T12:03:15.033Z,22.40
2017-05-15T12:05:43.346Z,22.40
2017-05-15T12:08:12.399Z,22.60
2017-05-15T12:10:40.709Z,22.70
2017-05-15T12:13:09.362Z,22.80
2017-05-15T12:15:37.673Z,22.90
2017-05-15T12:18:06.003Z,22.90
2017-05-15T12:20:34.308Z,23.00
2017-05-15T12:23:02.613Z,23.10
2017-05-15T12:25:31.669Z,23.10
2017-05-15T12:28:00.026Z,23.20
2017-05-15T12:30:28.391Z,23.20
2017-05-15T12:32:56.750Z,23.20
2017-05-15T12:35:25.818Z,23.20
2017-05-15T12:37:54.419Z,23.30
2017-05-15T12:40:22.734Z,23.30
2017-05-15T12:42:51.052Z,23.20
2017-05-15T12:45:19.361Z,23.30
2017-05-15T12:47:48.430Z,23.20
2017-05-15T12:50:16.742Z,23.20
2017-05-15T12:52:45.805Z,23.20
2017-05-15T12:55:14.110Z,23.30
2017-05-15T12:57:43.570Z,23.40
2017-05-15T13:00:11.883Z,23.50
2017-05-15T13:02:40.198Z,23.60
2017-05-15T13:05:08.508Z,23.60
2017-05-15T13:07:36.818Z,23.60
2017-05-15T13:10:05.133Z,23.70
2017-05-15T13:12:34.086Z,23.80
2017-05-15T13:15:02.404Z,23.90
2017-05-15T13:17:30.707Z,24.00
2017-05-15T13:19:59.017Z,23.80
2017-05-15T13:22:27.330Z,23.70
2017-05-15T13:24:55.681Z,23.90
2017-05-15T13:27:23.989Z,24.00
2017-05-15T13:29:52.522Z,24.10
2017-05-15T13:32:20.838Z,24.30
2017-05-15T13:34:49.902Z,24.30
2017-05-15T13:37:18.213Z,24.30
2017-05-15T13:39:46.526Z,24.40
2017-05-15T13:42:14.837Z,24.50
2017-05-15T13:44:43.149Z,24.50
2017-05-15T13:47:11.454Z,24.40
2017-05-15T13:49:39.762Z,24.40
2017-05-15T13:52:08.078Z,24.50
2017-05-15T13:54:36.390Z,24.40
2017-05-15T13:57:04.713Z,24.30
2017-05-15T13:59:33.687Z,24.30
2017-05-15T14:02:02.009Z,24.50
2017-05-15T14:04:30.624Z,24.60
2017-05-15T14:06:58.941Z,24.80
2017-05-15T14:09:27.249Z,25.00
2017-05-15T14:11:56.297Z,25.00
2017-05-15T14:14:24.605Z,25.10
2017-05-15T14:16:53.655Z,25.10
2017-05-15T14:19:22.346Z,25.20
2017-05-15T14:21:51.091Z,25.30
2017-05-15T14:24:20.139Z,25.40
2017-05-15T14:26:48.492Z,25.50
2017-05-15T14:29:16.785Z,25.50
2017-05-15T14:31:45.096Z,25.70
2017-05-15T14:34:13.402Z,25.70
2017-05-15T14:36:41.711Z,25.80
2017-05-15T14:39:10.029Z,25.80
2017-05-15T14:41:38.337Z,25.80
2017-05-15T14:44:06.686Z,25.80
2017-05-15T14:46:35.053Z,25.80
2017-05-15T14:49:03.361Z,25.80
2017-05-15T14:51:32.415Z,25.80
2017-05-15T14:54:00.719Z,25.80
2017-05-15T14:56:29.033Z,26.00
2017-05-15T14:58:57.490Z,26.00
2017-05-15T15:01:26.540Z,26.10
2017-05-15T15:03:54.850Z,26.20
2017-05-15T15:06:23.163Z,26.20
2017-05-15T15:08:51.473Z,26.30
2017-05-15T15:11:19.780Z,26.30
2017-05-15T15:13:48.086Z,26.20
2017-05-15T15:16:17.665Z,26.20
2017-05-15T15:18:46.006Z,26.20
2017-05-15T15:21:14.309Z,26.10
2017-05-15T15:23:42.743Z,25.90
2017-05-15T15:26:11.353Z,25.90
2017-05-15T15:28:39.662Z,26.10
2017-05-15T15:31:08.082Z,26.20
2017-05-15T15:33:36.390Z,26.30
2017-05-15T15:36:04.750Z,26.40
2017-05-15T15:38:33.065Z,26.60
2017-05-15T15:41:01.375Z,26.60
2017-05-15T15:43:30.474Z,26.60
2017-05-15T15:45:59.519Z,26.60
2017-05-15T15:48:27.831Z,26.50
2017-05-15T15:50:56.369Z,26.50
2017-05-15T15:53:24.681Z,26.60
2017-05-15T15:55:52.985Z,26.60
2017-05-15T15:58:22.088Z,26.70
2017-05-15T16:00:51.140Z,26.80
2017-05-15T16:03:19.905Z,26.90
2017-05-15T16:05:48.219Z,27.00
2017-05-15T16:08:16.532Z,27.10
2017-05-15T16:10:46.521Z,27.10
2017-05-15T16:13:14.832Z,27.30
2017-05-15T16:15:43.141Z,27.40
2017-05-15T16:18:11.491Z,27.60
2017-05-15T16:20:39.806Z,27.70
2017-05-15T16:23:08.438Z,27.80
2017-05-15T16:25:37.479Z,27.80
2017-05-15T16:28:05.994Z,27.90
2017-05-15T16:30:37.342Z,28.20
2017-05-15T16:33:05.657Z,28.20
2017-05-15T16:35:33.974Z,28.20
2017-05-15T16:38:02.354Z,28.30
2017-05-15T16:40:30.663Z,28.30
2017-05-15T16:43:00.158Z,28.40
2017-05-15T16:45:28.461Z,28.40
2017-05-15T16:47:57.501Z,28.00
2017-05-15T16:50:26.455Z,27.60
2017-05-15T16:52:55.503Z,27.10
2017-05-15T16:55:23.814Z,26.60
2017-05-15T16:57:52.911Z,26.10
2017-05-15T17:00:22.075Z,25.80
2017-05-15T17:02:51.275Z,25.50
2017-05-15T17:05:19.658Z,25.20
2017-05-15T17:07:48.566Z,25.00
2017-05-15T17:10:16.882Z,24.80
2017-05-15T17:12:47.421Z,24.50
2017-05-15T17:15:15.862Z,24.30
2017-05-15T17:17:44.917Z,24.00
2017-05-15T17:20:13.282Z,23.90
2017-05-15T17:22:41.586Z,23.80
2017-05-15T17:25:14.110Z,23.60
2017-05-15T17:27:42.630Z,23.30
2017-05-15T17:30:10.952Z,23.10
2017-05-15T17:32:40.054Z,23.00
2017-05-15T17:35:09.114Z,22.90
2017-05-15T17:37:37.465Z,22.70
2017-05-15T17:42:26.077Z,22.60
2017-05-15T17:44:55.038Z,22.40
2017-05-15T17:47:23.350Z,22.30
2017-05-15T17:49:51.674Z,22.20
2017-05-15T17:52:19.986Z,21.90
2017-05-15T17:54:48.317Z,21.80
2017-05-15T17:57:16.637Z,21.60
2017-05-15T17:59:44.949Z,21.60
2017-05-15T18:02:14.012Z,21.40
2017-05-15T18:04:42.359Z,21.30
2017-05-15T18:07:10.675Z,21.20
2017-05-15T18:09:38.983Z,21.00
2017-05-15T18:12:07.301Z,20.90
2017-05-15T18:14:35.668Z,20.80
2017-05-15T18:17:03.985Z,20.80
2017-05-15T18:19:32.300Z,20.70
2017-05-15T18:22:01.346Z,20.50
2017-05-15T18:24:29.674Z,20.30
2017-05-15T18:26:58.731Z,20.10
2017-05-15T18:29:27.756Z,19.90
2017-05-15T18:31:56.802Z,19.70
2017-05-15T18:34:25.149Z,19.60
2017-05-15T18:36:53.612Z,19.50
2017-05-15T18:39:22.670Z,19.30
2017-05-15T18:41:50.985Z,19.30
2017-05-15T18:44:20.037Z,19.20
2017-05-15T18:46:48.359Z,19.10
2017-05-15T18:49:17.411Z,19.10
2017-05-15T18:51:46.032Z,19.00
2017-05-15T18:54:15.085Z,19.00
2017-05-15T18:56:43.471Z,18.90
2017-05-15T18:59:12.192Z,18.80
2017-05-15T19:01:40.512Z,18.70
2017-05-15T19:04:08.842Z,18.60
2017-05-15T19:06:37.373Z,18.40
2017-05-15T19:09:07.090Z,18.30
2017-05-15T19:11:35.397Z,18.20
2017-05-15T19:14:03.722Z,18.10
2017-05-15T19:16:32.041Z,18.00
2017-05-15T19:19:00.357Z,17.90
2017-05-15T19:21:29.977Z,17.80
2017-05-15T19:24:00.288Z,17.60
2017-05-15T19:26:28.602Z,17.60
2017-05-15T19:28:56.905Z,17.50
2017-05-15T19:31:25.206Z,17.40
2017-05-15T19:33:53.906Z,17.30
2017-05-15T19:36:22.215Z,17.20
2017-05-15T19:38:50.530Z,17.10
2017-05-15T19:41:18.837Z,17.10
2017-05-15T19:43:47.142Z,17.00
2017-05-15T19:46:15.454Z,16.90
2017-05-15T19:48:43.776Z,16.80
2017-05-15T19:51:12.131Z,16.70
2017-05-15T19:53:40.428Z,16.60
2017-05-15T19:56:08.781Z,16.50
2017-05-15T19:58:37.090Z,16.40
2017-05-15T20:01:06.117Z,16.30
2017-05-15T20:03:34.421Z,16.20
2017-05-15T20:06:02.731Z,16.20
2017-05-15T20:08:31.034Z,16.10
2017-05-15T20:11:01.812Z,16.00
2017-05-15T20:13:30.126Z,16.00
2017-05-15T20:15:58.434Z,15.90
2017-05-15T20:18:26.753Z,15.80
2017-05-15T20:20:55.061Z,15.80
2017-05-15T20:23:23.376Z,15.70
2017-05-15T20:25:51.694Z,15.60
2017-05-15T20:28:20.006Z,15.60
2017-05-15T20:30:49.503Z,15.50
2017-05-15T20:33:17.821Z,15.50
2017-05-15T20:35:46.126Z,15.40
2017-05-15T20:38:14.455Z,15.40
2017-05-15T20:40:43.501Z,15.30
2017-05-15T20:43:12.115Z,15.30
2017-05-15T20:45:40.428Z,15.30
2017-05-15T20:48:08.749Z,15.30
2017-05-15T20:50:37.058Z,15.30
2017-05-15T20:53:06.155Z,15.20
2017-05-15T20:55:34.615Z,15.30
2017-05-15T20:58:02.925Z,15.20
2017-05-15T21:00:31.976Z,15.20
2017-05-15T21:03:00.281Z,15.20
2017-05-15T21:05:30.193Z,15.20
2017-05-15T21:07:58.507Z,15.10
2017-05-15T21:10:27.103Z,15.10
2017-05-15T21:12:55.410Z,15.10
2017-05-15T21:15:23.717Z,15.10
2017-05-15T21:17:52.817Z,15.10
2017-05-15T21:20:21.861Z,15.00
2017-05-15T21:22:50.172Z,15.00
2017-05-15T21:25:18.479Z,15.00
2017-05-15T21:27:47.530Z,15.00
2017-05-15T21:30:17.318Z,15.00
2017-05-15T21:32:45.627Z,15.00
2017-05-15T21:35:13.934Z,15.00
2017-05-15T21:37:42.984Z,14.90
2017-05-15T21:40:11.290Z,14.90
2017-05-15T21:42:39.607Z,14.90
2017-05-15T21:45:07.930Z,14.90
2017-05-15T21:47:36.259Z,14.80
2017-05-15T21:50:04.607Z,14.80
2017-05-15T21:52:32.918Z,14.80
2017-05-15T21:55:01.227Z,14.80
2017-05-15T21:57:29.534Z,14.70
2017-05-15T21:59:58.046Z,14.70
2017-05-15T22:02:27.086Z,14.60
2017-05-15T22:04:55.393Z,14.60
2017-05-15T22:07:23.705Z,14.60
2017-05-15T22:09:52.417Z,14.60
2017-05-15T22:12:20.894Z,14.60
2017-05-15T22:14:49.198Z,14.60
2017-05-15T22:17:17.510Z,14.50
2017-05-15T22:19:46.555Z,14.50
2017-05-15T22:22:14.862Z,14.50
2017-05-15T22:24:43.176Z,14.50
2017-05-15T22:27:11.483Z,14.40
2017-05-15T22:29:40.167Z,14.40
2017-05-15T22:32:08.477Z,14.40
2017-05-15T22:34:36.787Z,14.30
2017-05-15T22:37:05.829Z,14.30
2017-05-15T22:39:34.546Z,14.30
2017-05-15T22:42:02.862Z,14.30
2017-05-15T22:44:31.172Z,14.30
2017-05-15T22:46:59.481Z,14.30
2017-05-15T22:49:27.786Z,14.30
2017-05-15T22:51:56.102Z,14.30
2017-05-15T22:54:24.415Z,14.30
2017-05-15T22:56:52.885Z,14.30
2017-05-15T22:59:21.193Z,14.30
2017-05-15T23:01:50.249Z,14.30
2017-05-15T23:04:18.593Z,14.30
2017-05-15T23:06:46.900Z,14.30
2017-05-15T23:09:15.210Z,14.30
2017-05-15T23:11:43.517Z,14.30
2017-05-15T23:14:11.822Z,14.30
2017-05-15T23:16:40.125Z,14.30
2017-05-15T23:19:08.430Z,14.30
2017-05-15T23:21:37.478Z,14.30
2017-05-15T23:24:05.961Z,14.30
2017-05-15T23:26:34.266Z,14.30
2017-05-15T23:29:02.570Z,14.30
2017-05-15T23:31:31.798Z,14.20
2017-05-15T23:34:00.104Z,14.30
2017-05-15T23:36:28.410Z,14.30
2017-05-15T23:38:57.449Z,14.20
2017-05-15T23:41:25.751Z,14.20
2017-05-15T23:43:54.057Z,14.20
2017-05-15T23:46:22.366Z,14.30
2017-05-15T23:48:50.675Z,14.20
2017-05-15T23:51:19.001Z,14.20
2017-05-15T23:53:48.101Z,14.20
2017-05-15T23:56:17.146Z,14.20
2017-05-15T23:58:46.042Z,14.20
